Time;durP1;ratioP1;P1;durP2;ratioP2;P2;SDS_P1;SDS_P2;PMS_P1;PMS_P2;Temp;Humidity;BMP_temperature;BMP_pressure;BME280_temperature;BME280_humidity;BME280_pressure;Samples;Min_cycle;Max_cycle;Signal;HPM_P1;HPM_P2
2023/01/08 00:00:57;;;;;;;22.00;16.20;;;5.50;99.90;;;;;;2082169;28;20545;-77
2023/01/08 00:01:58;;;;;;;20.50;15.32;;;5.50;99.90;;;;;;2068080;28;20034;-76
2023/01/08 00:02:58;;;;;;;22.42;15.90;;;5.50;99.90;;;;;;2069703;28;20088;-76
2023/01/08 00:03:59;;;;;;;21.67;15.90;;;5.50;99.90;;;;;;2072166;28;20052;-75
2023/01/08 00:04:59;;;;;;;20.63;15.30;;;5.50;99.90;;;;;;2064774;28;20070;-82
2023/01/08 00:06:02;;;;;;;20.02;15.02;;;5.50;99.90;;;;;;2078633;28;20044;-85
2023/01/08 00:07:03;;;;;;;20.17;14.50;;;5.50;99.90;;;;;;2072530;28;20327;-82
2023/01/08 00:08:04;;;;;;;19.30;14.38;;;5.50;99.90;;;;;;2071356;28;20120;-83
2023/01/08 00:09:04;;;;;;;19.58;13.85;;;5.50;99.90;;;;;;2074799;28;20025;-81
2023/01/08 00:10:05;;;;;;;20.65;14.50;;;5.50;99.90;;;;;;2088999;28;20036;-82
2023/01/08 00:11:06;;;;;;;22.25;16.33;;;5.50;99.90;;;;;;2080756;28;20059;-77
2023/01/08 00:12:07;;;;;;;20.60;15.35;;;5.60;99.90;;;;;;2075895;28;20041;-87
2023/01/08 00:13:07;;;;;;;20.75;15.68;;;5.60;99.90;;;;;;2076806;28;20041;-85
2023/01/08 00:14:08;;;;;;;22.15;15.70;;;5.60;99.90;;;;;;2084579;28;20021;-84
2023/01/08 00:15:09;;;;;;;22.73;15.55;;;5.60;99.90;;;;;;2084291;28;20548;-84
2023/01/08 00:16:16;;;;;;;19.77;15.13;;;5.60;99.90;;;;;;2085644;28;20057;-84
2023/01/08 00:17:16;;;;;;;19.08;13.90;;;5.60;99.90;;;;;;2085387;28;20065;-83
2023/01/08 00:18:17;;;;;;;21.15;15.27;;;5.60;99.90;;;;;;2088019;28;20029;-84
2023/01/08 00:19:18;;;;;;;20.98;14.80;;;5.60;99.90;;;;;;2084298;28;20033;-81
2023/01/08 00:20:18;;;;;;;21.55;15.27;;;5.60;99.90;;;;;;2085785;28;20036;-84
2023/01/08 00:21:19;;;;;;;21.58;16.17;;;5.60;99.90;;;;;;2086221;28;20067;-85
2023/01/08 00:22:20;;;;;;;22.38;16.27;;;5.60;99.90;;;;;;2076682;28;20029;-85
2023/01/08 00:23:21;;;;;;;21.42;15.52;;;5.60;99.90;;;;;;2074591;28;20131;-84
2023/01/08 00:24:22;;;;;;;20.92;15.40;;;5.60;99.90;;;;;;2080300;28;20112;-82
2023/01/08 00:25:22;;;;;;;22.95;15.88;;;5.60;99.90;;;;;;2084309;28;20025;-83
2023/01/08 00:26:23;;;;;;;23.05;16.58;;;5.60;99.90;;;;;;2068043;28;20030;-84
2023/01/08 00:27:25;;;;;;;26.60;18.48;;;5.60;99.90;;;;;;2069278;28;20036;-82
2023/01/08 00:28:26;;;;;;;26.73;18.30;;;5.60;99.90;;;;;;2076337;28;20032;-83
2023/01/08 00:29:27;;;;;;;26.60;18.10;;;5.60;99.90;;;;;;2073904;28;20455;-84
2023/01/08 00:30:27;;;;;;;27.75;18.95;;;5.60;99.90;;;;;;2084149;28;20029;-86
2023/01/08 00:31:28;;;;;;;28.35;19.90;;;5.60;99.90;;;;;;2081975;28;20058;-84
2023/01/08 00:32:28;;;;;;;26.73;18.63;;;5.60;99.90;;;;;;2077334;28;20287;-83
2023/01/08 00:33:29;;;;;;;25.80;18.08;;;5.60;99.90;;;;;;2078068;28;20029;-85
2023/01/08 00:34:29;;;;;;;25.80;17.45;;;5.60;99.90;;;;;;2079191;28;20037;-84
2023/01/08 00:35:30;;;;;;;22.23;16.35;;;5.60;99.90;;;;;;2077936;28;20017;-82
2023/01/08 00:36:30;;;;;;;22.35;16.02;;;5.70;99.90;;;;;;2085121;28;20460;-82
2023/01/08 00:37:31;;;;;;;22.38;15.73;;;5.70;99.90;;;;;;2076730;28;20468;-84
2023/01/08 00:38:31;;;;;;;23.20;16.13;;;5.70;99.90;;;;;;2061417;28;20511;-84
2023/01/08 00:39:32;;;;;;;21.25;16.23;;;5.70;99.90;;;;;;2067966;28;20040;-80
2023/01/08 00:40:34;;;;;;;21.92;16.05;;;5.70;99.90;;;;;;2085660;28;20115;-83
2023/01/08 00:41:34;;;;;;;19.73;15.05;;;5.70;99.90;;;;;;2082820;28;20029;-88
2023/01/08 00:42:35;;;;;;;21.15;15.80;;;5.70;99.90;;;;;;2074820;28;20029;-82
2023/01/08 00:43:36;;;;;;;21.52;15.85;;;5.70;99.90;;;;;;2076178;28;20544;-82
2023/01/08 00:44:37;;;;;;;21.27;15.70;;;5.70;99.90;;;;;;2076195;28;20037;-82
2023/01/08 00:45:38;;;;;;;19.98;14.88;;;5.70;99.90;;;;;;2071036;28;20122;-83
2023/01/08 00:46:38;;;;;;;19.73;15.00;;;5.70;99.90;;;;;;2085352;28;20413;-83
2023/01/08 00:47:39;;;;;;;22.10;15.98;;;5.70;99.90;;;;;;2085900;28;20033;-83
2023/01/08 00:48:39;;;;;;;22.08;16.02;;;5.70;99.90;;;;;;2085372;28;20495;-83
2023/01/08 00:49:40;;;;;;;25.05;16.05;;;5.70;99.90;;;;;;2068598;28;20132;-84
2023/01/08 00:50:41;;;;;;;21.77;15.60;;;5.70;99.90;;;;;;2068617;28;20030;-86
2023/01/08 00:51:41;;;;;;;21.90;15.32;;;5.70;99.90;;;;;;2083541;28;20490;-87
2023/01/08 00:52:42;;;;;;;20.77;15.38;;;5.70;99.90;;;;;;2084250;28;20107;-85
2023/01/08 00:53:42;;;;;;;20.40;15.30;;;5.80;99.90;;;;;;2077058;28;20060;-84
2023/01/08 00:54:43;;;;;;;19.63;14.95;;;5.80;99.90;;;;;;2074547;28;20040;-84
2023/01/08 00:55:44;;;;;;;20.30;14.40;;;5.70;99.90;;;;;;2082819;28;20088;-84
2023/01/08 00:56:44;;;;;;;21.95;15.70;;;5.70;99.90;;;;;;2084862;28;20231;-81
2023/01/08 00:57:45;;;;;;;22.38;16.60;;;5.70;99.90;;;;;;2075421;28;20041;-81
2023/01/08 00:58:45;;;;;;;21.20;16.05;;;5.80;99.90;;;;;;2075547;28;20302;-81
2023/01/08 00:59:46;;;;;;;22.50;16.58;;;5.80;99.90;;;;;;2083491;28;20032;-81
2023/01/08 01:00:46;;;;;;;23.30;16.52;;;5.80;99.90;;;;;;2074636;28;20033;-81
2023/01/08 01:01:47;;;;;;;21.88;16.33;;;5.80;99.90;;;;;;2074640;28;20090;-78
2023/01/08 01:02:48;;;;;;;20.83;15.57;;;5.90;99.90;;;;;;2075403;28;20649;-81
2023/01/08 01:03:48;;;;;;;21.65;15.93;;;5.90;99.90;;;;;;2073981;28;20026;-80
2023/01/08 01:04:49;;;;;;;22.35;16.05;;;5.80;99.90;;;;;;2074571;28;20029;-80
2023/01/08 01:05:49;;;;;;;21.63;15.48;;;5.80;99.90;;;;;;2074643;28;20025;-82
2023/01/08 01:06:50;;;;;;;20.45;15.27;;;5.80;99.90;;;;;;2076570;28;20459;-82
2023/01/08 01:07:50;;;;;;;21.70;15.95;;;5.80;99.90;;;;;;2082090;28;20024;-83
2023/01/08 01:08:51;;;;;;;22.35;16.67;;;5.80;99.90;;;;;;2083502;28;20087;-84
2023/01/08 01:09:52;;;;;;;22.63;16.33;;;5.80;99.90;;;;;;2073891;28;20057;-84
2023/01/08 01:10:53;;;;;;;20.60;15.45;;;5.80;99.90;;;;;;2079593;28;20433;-83
2023/01/08 01:11:53;;;;;;;21.30;15.57;;;5.70;99.90;;;;;;2083321;28;20052;-84
2023/01/08 01:12:54;;;;;;;20.73;15.05;;;5.80;99.90;;;;;;2083402;28;20053;-85
2023/01/08 01:13:55;;;;;;;21.42;15.20;;;5.80;99.90;;;;;;2082742;28;20112;-84
2023/01/08 01:14:56;;;;;;;24.38;16.80;;;5.70;99.90;;;;;;2085232;28;20025;-82
2023/01/08 01:15:59;;;;;;;22.40;16.13;;;5.70;99.90;;;;;;2082075;28;20037;-84
2023/01/08 01:16:59;;;;;;;21.77;16.27;;;5.70;99.90;;;;;;2081258;28;20029;-85
2023/01/08 01:18:00;;;;;;;20.35;15.73;;;5.70;99.90;;;;;;2074728;28;20034;-82
2023/01/08 01:19:01;;;;;;;21.33;15.60;;;5.70;99.90;;;;;;2074983;28;20068;-82
2023/01/08 01:20:01;;;;;;;21.42;16.33;;;5.70;99.90;;;;;;2076469;28;20108;-83
2023/01/08 01:21:08;;;;;;;22.48;16.08;;;5.60;99.90;;;;;;2074927;28;20041;-83
2023/01/08 01:22:08;;;;;;;21.27;15.90;;;5.70;99.90;;;;;;2075751;28;20025;-84
2023/01/08 01:23:09;;;;;;;21.52;15.65;;;5.60;99.90;;;;;;2075000;28;20151;-84
2023/01/08 01:24:11;;;;;;;23.17;17.25;;;5.60;99.90;;;;;;2074935;28;20392;-85
2023/01/08 01:25:12;;;;;;;21.92;15.93;;;5.70;99.90;;;;;;2074785;28;20046;-84
2023/01/08 01:26:18;;;;;;;23.10;17.33;;;5.70;99.90;;;;;;2082519;28;20039;-84
2023/01/08 01:27:19;;;;;;;21.42;16.30;;;5.70;99.90;;;;;;2072966;28;20068;-85
2023/01/08 01:28:19;;;;;;;20.90;15.68;;;5.80;99.90;;;;;;2074070;28;20034;-82
2023/01/08 01:29:20;;;;;;;22.73;16.80;;;5.70;99.90;;;;;;2075035;28;20508;-85
2023/01/08 01:30:20;;;;;;;21.45;15.68;;;5.80;99.90;;;;;;2074778;28;20089;-84
2023/01/08 01:31:21;;;;;;;22.75;16.00;;;5.80;99.90;;;;;;2077443;28;20032;-83
2023/01/08 01:32:22;;;;;;;20.40;15.52;;;5.70;99.90;;;;;;2075402;28;20041;-83
2023/01/08 01:33:22;;;;;;;23.38;17.17;;;5.80;99.90;;;;;;2080234;28;20033;-85
2023/01/08 01:34:23;;;;;;;21.42;16.10;;;5.70;99.90;;;;;;2081742;28;20021;-85
2023/01/08 01:35:24;;;;;;;23.67;16.50;;;5.80;99.90;;;;;;2080686;28;20041;-85
2023/01/08 01:36:25;;;;;;;21.20;15.45;;;5.80;99.90;;;;;;2083137;28;20129;-86
2023/01/08 01:37:26;;;;;;;21.25;15.85;;;5.80;99.90;;;;;;2080579;28;20040;-85
2023/01/08 01:38:28;;;;;;;20.15;15.00;;;5.70;99.90;;;;;;2079326;28;20047;-86
2023/01/08 01:39:29;;;;;;;19.63;15.07;;;5.80;99.90;;;;;;2081734;28;20060;-89
2023/01/08 01:40:29;;;;;;;22.33;15.93;;;5.70;99.90;;;;;;2080314;28;20024;-85
2023/01/08 01:41:35;;;;;;;22.80;16.35;;;5.70;99.90;;;;;;2081046;28;20049;-90
2023/01/08 01:42:38;;;;;;;21.35;16.02;;;5.70;99.90;;;;;;2078378;28;20025;-86
2023/01/08 01:43:41;;;;;;;21.83;16.27;;;5.70;99.90;;;;;;2078295;28;20421;-90
2023/01/08 01:44:44;;;;;;;22.80;16.38;;;5.80;99.90;;;;;;2072131;28;20127;-90
2023/01/08 01:45:44;;;;;;;21.95;15.93;;;5.80;99.90;;;;;;2070999;28;20037;-90
2023/01/08 01:46:46;;;;;;;24.10;16.48;;;5.80;99.90;;;;;;2080015;28;20044;-90
2023/01/08 01:48:02;;;;;;;21.15;15.70;;;5.80;99.90;;;;;;2087182;28;20140;-90
2023/01/08 01:49:10;;;;;;;19.52;14.73;;;5.80;99.90;;;;;;2081014;28;20037;-88
2023/01/08 01:50:15;;;;;;;21.10;15.95;;;5.80;99.90;;;;;;2075130;28;20065;-90
2023/01/08 01:51:16;;;;;;;24.23;16.27;;;5.80;99.90;;;;;;2078169;28;20021;-88
2023/01/08 01:52:17;;;;;;;20.30;15.40;;;5.80;99.90;;;;;;2080776;28;20036;-91
2023/01/08 01:53:27;;;;;;;21.58;15.82;;;5.80;99.90;;;;;;2076691;28;20030;-74
2023/01/08 01:54:30;;;;;;;21.45;16.05;;;5.70;99.90;;;;;;2073045;28;20275;-73
2023/01/08 01:55:31;;;;;;;21.77;16.17;;;5.70;99.90;;;;;;2073853;28;20037;-73
2023/01/08 01:56:32;;;;;;;20.42;15.65;;;5.80;99.90;;;;;;2068512;28;20037;-73
2023/01/08 01:57:33;;;;;;;19.92;15.35;;;5.70;99.90;;;;;;2063561;28;20476;-74
2023/01/08 01:58:34;;;;;;;21.73;15.82;;;5.70;99.90;;;;;;2074521;28;20415;-74
2023/01/08 01:59:34;;;;;;;22.73;15.80;;;5.70;99.90;;;;;;2073989;28;20732;-74
2023/01/08 02:00:35;;;;;;;20.88;15.77;;;5.70;99.90;;;;;;2073538;28;20030;-74
2023/01/08 02:01:37;;;;;;;21.80;15.82;;;5.70;99.90;;;;;;2074237;28;20397;-73
2023/01/08 02:02:38;;;;;;;19.55;15.20;;;5.70;99.90;;;;;;2075699;28;20041;-75
2023/01/08 02:03:39;;;;;;;19.50;14.55;;;5.70;99.90;;;;;;2066031;28;20036;-71
2023/01/08 02:04:40;;;;;;;23.80;16.67;;;5.70;99.90;;;;;;2070411;28;20037;-71
2023/01/08 02:06:09;;;;;;;20.67;15.57;;;5.70;99.90;;;;;;2071161;28;20030;-74
2023/01/08 02:07:32;;;;;;;22.67;16.85;;;5.70;99.90;;;;;;2048373;28;20047;-74
2023/01/08 02:09:05;;;;;;;22.48;15.75;;;5.70;99.90;;;;;;2063761;28;20457;-73
2023/01/08 02:10:10;;;;;;;21.58;16.02;;;5.70;99.90;;;;;;2054925;28;20122;-74
2023/01/08 02:11:47;;;;;;;21.15;15.70;;;5.70;99.90;;;;;;2076501;28;20030;-74
2023/01/08 02:12:56;;;;;;;25.15;16.75;;;5.70;99.90;;;;;;2069118;28;20512;-74
2023/01/08 02:14:12;;;;;;;22.98;16.52;;;5.70;99.90;;;;;;2067432;28;20044;-73
2023/01/08 02:15:26;;;;;;;22.05;16.33;;;5.70;99.90;;;;;;2082584;28;20160;-74
2023/01/08 02:16:38;;;;;;;22.70;17.02;;;5.70;99.90;;;;;;2080537;28;20082;-74
2023/01/08 02:17:56;;;;;;;21.98;16.60;;;5.70;99.90;;;;;;2072151;28;20045;-74
2023/01/08 02:19:20;;;;;;;21.92;16.42;;;5.70;99.90;;;;;;2062998;28;20033;-73
2023/01/08 02:20:38;;;;;;;21.65;16.25;;;5.80;99.90;;;;;;2067461;28;20521;-73
2023/01/08 02:22:08;;;;;;;21.98;16.10;;;5.70;99.90;;;;;;2069006;28;20056;-74
2023/01/08 02:23:26;;;;;;;22.23;16.35;;;5.80;99.90;;;;;;2068623;28;20112;-74
2023/01/08 02:24:55;;;;;;;23.20;16.90;;;5.80;99.90;;;;;;2063608;28;20034;-74
2023/01/08 02:26:14;;;;;;;23.60;16.38;;;5.80;99.90;;;;;;2065345;28;20021;-74
2023/01/08 02:27:16;;;;;;;23.02;15.90;;;5.80;99.90;;;;;;2069693;28;20084;-73
2023/01/08 02:28:18;;;;;;;22.10;16.23;;;5.80;99.90;;;;;;2068542;28;20026;-73
2023/01/08 02:29:22;;;;;;;21.80;16.30;;;5.70;99.90;;;;;;2065795;28;20457;-73
2023/01/08 02:30:24;;;;;;;22.63;16.58;;;5.80;99.90;;;;;;2069526;28;20030;-73
2023/01/08 02:31:27;;;;;;;22.70;16.23;;;5.70;99.90;;;;;;2067099;28;20394;-74
2023/01/08 02:32:34;;;;;;;22.25;16.98;;;5.70;99.90;;;;;;2070506;28;20497;-73
2023/01/08 02:33:35;;;;;;;23.67;16.55;;;5.70;99.90;;;;;;2062366;28;20034;-73
2023/01/08 02:34:36;;;;;;;22.50;17.02;;;5.70;99.90;;;;;;2066771;28;20466;-73
2023/01/08 02:35:40;;;;;;;22.60;16.55;;;5.80;99.90;;;;;;2064666;28;20022;-74
2023/01/08 02:36:50;;;;;;;23.75;16.63;;;5.80;99.90;;;;;;2072060;28;20362;-74
2023/01/08 02:37:51;;;;;;;;;;;5.80;99.90;;;;;;2071697;28;20080;-72
2023/01/08 02:39:32;;;;;;;23.55;16.70;;;5.80;99.90;;;;;;2077119;28;19991;-73
2023/01/08 02:40:57;;;;;;;24.20;16.92;;;5.70;99.90;;;;;;2072663;28;20129;-74
2023/01/08 02:42:13;;;;;;;24.77;17.50;;;5.70;99.90;;;;;;2067900;28;20504;-72
2023/01/08 02:43:22;;;;;;;22.98;16.80;;;5.70;99.90;;;;;;2071533;28;20412;-90
2023/01/08 02:44:36;;;;;;;24.40;17.10;;;5.70;99.90;;;;;;2070592;28;20112;-84
2023/01/08 02:45:45;;;;;;;25.27;17.48;;;5.70;99.90;;;;;;2071683;28;20084;-73
2023/01/08 02:46:50;;;;;;;22.83;17.08;;;5.70;99.90;;;;;;2064024;28;20033;-73
2023/01/08 02:48:14;;;;;;;23.33;16.88;;;5.60;99.90;;;;;;2069487;28;20057;-73
2023/01/08 02:49:17;;;;;;;24.35;17.23;;;5.60;99.90;;;;;;2070239;28;20308;-73
2023/01/08 02:50:27;;;;;;;25.63;18.40;;;5.60;99.90;;;;;;2083491;28;20029;-74
2023/01/08 02:51:33;;;;;;;26.05;18.45;;;5.60;99.90;;;;;;2072103;28;20033;-74
2023/01/08 02:52:45;;;;;;;22.67;17.02;;;5.60;99.90;;;;;;2067150;28;20088;-74
2023/01/08 02:53:50;;;;;;;24.48;17.33;;;5.60;99.90;;;;;;2069768;28;20053;-74
2023/01/08 02:54:51;;;;;;;25.55;18.15;;;5.60;99.90;;;;;;2062079;28;20608;-74
2023/01/08 02:55:57;;;;;;;24.25;17.60;;;5.50;99.90;;;;;;2060565;28;20030;-73
2023/01/08 02:57:05;;;;;;;26.80;18.00;;;5.50;99.90;;;;;;2069949;28;20026;-74
2023/01/08 02:58:06;;;;;;;25.10;17.83;;;5.50;99.90;;;;;;2070673;28;20030;-74
2023/01/08 02:59:08;;;;;;;27.90;19.83;;;5.50;99.90;;;;;;2070556;28;20029;-73
2023/01/08 03:00:09;;;;;;;25.17;18.55;;;5.50;99.90;;;;;;2070386;28;20285;-74
2023/01/08 03:01:12;;;;;;;26.13;18.83;;;5.50;99.90;;;;;;2071325;28;20033;-74
2023/01/08 03:02:12;;;;;;;26.25;18.60;;;5.50;99.90;;;;;;2073018;28;20488;-73
2023/01/08 03:03:21;;;;;;;27.65;18.63;;;5.50;99.90;;;;;;2077187;28;20104;-74
2023/01/08 03:04:23;;;;;;;27.38;20.02;;;5.40;99.90;;;;;;2069349;28;20124;-74
2023/01/08 03:05:26;;;;;;;27.50;20.00;;;5.50;99.90;;;;;;2071107;28;20298;-73
2023/01/08 03:06:28;;;;;;;27.15;19.55;;;5.50;99.90;;;;;;2075973;28;20051;-73
2023/01/08 03:07:28;;;;;;;25.73;19.27;;;5.50;99.90;;;;;;2075855;28;20037;-73
2023/01/08 03:08:33;;;;;;;26.48;18.30;;;5.50;99.90;;;;;;2073091;28;20112;-74
2023/01/08 03:09:34;;;;;;;26.42;18.33;;;5.50;99.90;;;;;;2061000;28;20496;-74
2023/01/08 03:10:37;;;;;;;26.60;18.75;;;5.50;99.90;;;;;;2075141;28;20021;-74
2023/01/08 03:12:03;;;;;;;27.45;19.63;;;5.50;99.90;;;;;;2072656;28;20053;-74
2023/01/08 03:13:13;;;;;;;28.80;20.00;;;5.50;99.90;;;;;;2062841;28;20158;-74
2023/01/08 03:14:33;;;;;;;28.30;19.33;;;5.60;99.90;;;;;;2073353;28;20041;-74
2023/01/08 03:15:45;;;;;;;25.80;18.70;;;5.50;99.90;;;;;;2073114;28;20042;-74
2023/01/08 03:17:13;;;;;;;25.95;18.77;;;5.50;99.90;;;;;;2071487;28;20331;-74
2023/01/08 03:18:19;;;;;;;27.48;20.02;;;5.50;99.90;;;;;;2069740;28;20045;-72
2023/01/08 03:19:33;;;;;;;30.17;20.65;;;5.50;99.90;;;;;;2069932;28;20036;-72
2023/01/08 03:20:36;;;;;;;27.42;19.65;;;5.50;99.90;;;;;;2071789;28;20032;-72
2023/01/08 03:21:38;;;;;;;26.85;18.95;;;5.50;99.90;;;;;;2069233;28;20500;-73
2023/01/08 03:22:41;;;;;;;26.30;18.52;;;5.50;99.90;;;;;;2075190;28;20092;-72
2023/01/08 03:23:44;;;;;;;24.40;18.15;;;5.50;99.90;;;;;;2074053;28;20029;-73
2023/01/08 03:24:49;;;;;;;27.90;19.00;;;5.50;99.90;;;;;;2075741;28;20045;-73
2023/01/08 03:25:50;;;;;;;26.95;19.60;;;5.50;99.90;;;;;;2075735;28;20393;-74
2023/01/08 03:26:54;;;;;;;28.17;20.33;;;5.50;99.90;;;;;;2075006;28;20025;-73
2023/01/08 03:28:00;;;;;;;28.23;20.33;;;5.50;99.90;;;;;;2076905;28;20017;-72
2023/01/08 03:29:02;;;;;;;30.10;20.83;;;5.50;99.90;;;;;;2086355;28;20526;-73
2023/01/08 03:30:05;;;;;;;28.23;20.42;;;5.50;99.90;;;;;;2079412;28;20029;-74
2023/01/08 03:31:06;;;;;;;29.45;20.67;;;5.50;99.90;;;;;;2073790;28;20068;-75
2023/01/08 03:32:12;;;;;;;28.63;20.90;;;5.50;99.90;;;;;;2061713;28;20022;-75
2023/01/08 03:33:15;;;;;;;28.52;20.13;;;5.50;99.90;;;;;;2066090;28;20034;-74
2023/01/08 03:34:19;;;;;;;28.95;20.50;;;5.50;99.90;;;;;;2077144;28;20030;-75
2023/01/08 03:35:22;;;;;;;26.42;19.20;;;5.50;99.90;;;;;;2076404;28;20030;-74
2023/01/08 03:36:28;;;;;;;31.08;21.60;;;5.50;99.90;;;;;;2074986;28;20049;-74
2023/01/08 03:37:34;;;;;;;31.52;21.38;;;5.50;99.90;;;;;;2071060;28;20299;-73
2023/01/08 03:38:43;;;;;;;29.60;20.60;;;5.50;99.90;;;;;;2073539;28;20029;-75
2023/01/08 03:39:54;;;;;;;29.80;21.10;;;5.50;99.90;;;;;;2073075;28;20037;-73
2023/01/08 03:41:04;;;;;;;28.58;20.70;;;5.60;99.90;;;;;;2071408;28;20025;-74
2023/01/08 03:42:09;;;;;;;28.88;20.25;;;5.60;99.90;;;;;;2066503;28;20336;-74
2023/01/08 03:43:09;;;;;;;27.50;19.67;;;5.60;99.90;;;;;;2067015;28;20037;-73
2023/01/08 03:44:10;;;;;;;29.73;21.40;;;5.50;99.90;;;;;;2073432;28;20040;-73
2023/01/08 03:45:10;;;;;;;31.73;22.02;;;5.60;99.90;;;;;;2076769;28;20044;-73
2023/01/08 03:46:19;;;;;;;28.33;20.88;;;5.50;99.90;;;;;;2068763;28;20033;-73
2023/01/08 03:47:21;;;;;;;28.95;20.17;;;5.60;99.90;;;;;;2071569;28;20060;-73
2023/01/08 03:48:23;;;;;;;28.27;20.30;;;5.50;99.90;;;;;;2082614;28;20407;-73
2023/01/08 03:49:27;;;;;;;31.70;21.73;;;5.50;99.90;;;;;;2067340;28;20025;-73
2023/01/08 03:50:31;;;;;;;30.90;21.85;;;5.50;99.90;;;;;;2071913;28;20600;-73
2023/01/08 03:51:45;;;;;;;27.85;20.48;;;5.50;99.90;;;;;;2073183;28;20076;-73
2023/01/08 03:52:46;;;;;;;32.42;22.35;;;5.50;99.90;;;;;;2091502;28;20028;-73
2023/01/08 03:53:49;;;;;;;32.28;22.02;;;5.50;99.90;;;;;;2083220;28;20033;-73
2023/01/08 03:54:50;;;;;;;29.98;21.13;;;5.50;99.90;;;;;;2076924;28;20107;-73
2023/01/08 03:55:50;;;;;;;32.42;23.00;;;5.50;99.90;;;;;;2075924;28;20083;-73
2023/01/08 03:56:51;;;;;;;30.67;22.08;;;5.50;99.90;;;;;;2067016;28;20089;-73
2023/01/08 03:57:52;;;;;;;32.45;22.17;;;5.50;99.90;;;;;;2066785;28;20045;-73
2023/01/08 03:58:52;;;;;;;31.77;22.92;;;5.50;99.90;;;;;;2077653;28;20045;-73
2023/01/08 03:59:53;;;;;;;30.92;22.13;;;5.50;99.90;;;;;;2075701;28;20047;-74
2023/01/08 04:00:53;;;;;;;28.40;20.85;;;5.50;99.90;;;;;;2073816;28;20025;-73
2023/01/08 04:01:54;;;;;;;30.65;21.63;;;5.50;99.90;;;;;;2076976;28;20025;-73
2023/01/08 04:02:54;;;;;;;29.85;20.73;;;5.50;99.90;;;;;;2080451;28;20041;-73
2023/01/08 04:03:55;;;;;;;28.95;20.73;;;5.50;99.90;;;;;;2079561;28;20048;-73
2023/01/08 04:04:56;;;;;;;27.73;21.08;;;5.60;99.90;;;;;;2087043;28;20067;-73
2023/01/08 04:05:59;;;;;;;31.42;21.38;;;5.60;99.90;;;;;;2085420;28;20041;-73
2023/01/08 04:06:59;;;;;;;31.67;22.30;;;5.60;99.90;;;;;;2090350;28;20169;-73
2023/01/08 04:08:00;;;;;;;32.58;21.85;;;5.70;99.90;;;;;;2084037;28;20138;-73
2023/01/08 04:09:01;;;;;;;31.85;21.85;;;5.70;99.90;;;;;;2086634;28;20596;-73
2023/01/08 04:10:01;;;;;;;31.08;22.48;;;5.80;99.90;;;;;;2085208;28;20159;-73
2023/01/08 04:11:02;;;;;;;32.22;22.50;;;5.80;99.90;;;;;;2075960;28;20072;-74
2023/01/08 04:12:03;;;;;;;31.02;21.85;;;5.80;99.90;;;;;;2075901;28;20083;-73
2023/01/08 04:13:04;;;;;;;29.55;21.38;;;5.80;99.90;;;;;;2090159;28;20492;-74
2023/01/08 04:14:04;;;;;;;29.10;21.00;;;5.80;99.90;;;;;;2074987;28;20049;-74
2023/01/08 04:15:05;;;;;;;29.70;20.92;;;5.90;99.90;;;;;;2079554;28;20028;-74
2023/01/08 04:16:07;;;;;;;32.65;22.60;;;5.90;99.90;;;;;;2079130;28;20025;-74
2023/01/08 04:17:11;;;;;;;32.35;22.30;;;5.90;99.90;;;;;;2079932;28;20025;-73
2023/01/08 04:18:12;;;;;;;29.88;21.58;;;5.90;99.90;;;;;;2078359;28;20025;-74
2023/01/08 04:19:13;;;;;;;32.30;22.65;;;6.00;99.90;;;;;;2076880;28;20586;-74
2023/01/08 04:20:13;;;;;;;30.80;21.33;;;6.00;99.90;;;;;;2084132;28;20540;-74
2023/01/08 04:21:14;;;;;;;30.90;22.13;;;6.00;99.90;;;;;;2086977;28;20058;-74
2023/01/08 04:22:14;;;;;;;29.90;21.45;;;6.00;99.90;;;;;;2080345;28;20095;-74
2023/01/08 04:23:15;;;;;;;30.83;21.58;;;6.00;99.90;;;;;;2066659;28;20029;-74
2023/01/08 04:24:16;;;;;;;29.95;20.75;;;6.00;99.90;;;;;;2075444;28;20028;-74
2023/01/08 04:25:18;;;;;;;29.50;21.60;;;6.00;99.90;;;;;;2079268;28;20045;-74
2023/01/08 04:26:18;;;;;;;29.17;20.80;;;6.00;99.90;;;;;;2089197;28;20116;-74
2023/01/08 04:27:19;;;;;;;30.80;21.65;;;5.90;99.90;;;;;;2095604;28;20028;-73
2023/01/08 04:28:20;;;;;;;29.42;21.25;;;6.00;99.90;;;;;;2084442;28;20048;-74
2023/01/08 04:29:20;;;;;;;30.65;21.65;;;6.00;99.90;;;;;;2076197;28;20076;-73
2023/01/08 04:30:21;;;;;;;29.90;21.20;;;6.00;99.90;;;;;;2077730;28;20052;-73
2023/01/08 04:31:21;;;;;;;28.20;20.60;;;5.90;99.90;;;;;;2083384;28;20096;-73
2023/01/08 04:32:22;;;;;;;29.45;20.85;;;6.00;99.90;;;;;;2084522;28;20154;-74
2023/01/08 04:33:24;;;;;;;28.92;20.45;;;6.00;99.90;;;;;;2089144;28;20029;-73
2023/01/08 04:34:24;;;;;;;30.73;20.73;;;6.00;99.90;;;;;;2075245;28;20565;-73
2023/01/08 04:35:25;;;;;;;29.13;20.75;;;6.00;99.90;;;;;;2067969;28;20046;-73
2023/01/08 04:36:25;;;;;;;28.48;20.35;;;6.00;99.90;;;;;;2077331;28;20107;-73
2023/01/08 04:37:26;;;;;;;30.55;21.85;;;6.00;99.90;;;;;;2087019;28;20042;-74
2023/01/08 04:38:27;;;;;;;30.05;20.92;;;6.00;99.90;;;;;;2077998;28;20080;-74
2023/01/08 04:39:27;;;;;;;27.90;20.00;;;6.00;99.90;;;;;;2078180;28;20037;-74
2023/01/08 04:40:28;;;;;;;29.95;21.40;;;6.00;99.90;;;;;;2089366;28;20039;-74
2023/01/08 04:41:29;;;;;;;30.23;21.42;;;6.00;99.90;;;;;;2083380;28;20024;-75
2023/01/08 04:42:29;;;;;;;28.25;19.85;;;6.00;99.90;;;;;;2087923;28;20077;-73
2023/01/08 04:43:30;;;;;;;31.00;20.83;;;6.00;99.90;;;;;;2077774;28;20045;-74
2023/01/08 04:44:31;;;;;;;30.00;20.63;;;6.00;99.90;;;;;;2069811;28;20460;-73
2023/01/08 04:45:31;;;;;;;29.35;20.63;;;6.00;99.90;;;;;;2072063;28;20113;-74
2023/01/08 04:46:32;;;;;;;29.40;20.60;;;6.00;99.90;;;;;;2078187;28;20048;-74
2023/01/08 04:47:32;;;;;;;27.95;20.10;;;6.00;99.90;;;;;;2075689;28;20132;-73
2023/01/08 04:48:33;;;;;;;28.33;20.58;;;6.00;99.90;;;;;;2086101;28;20029;-72
2023/01/08 04:49:34;;;;;;;30.35;21.10;;;5.90;99.90;;;;;;2089988;28;20106;-74
2023/01/08 04:50:34;;;;;;;29.77;20.55;;;5.90;99.90;;;;;;2087968;28;20029;-74
2023/01/08 04:51:35;;;;;;;27.70;20.23;;;5.90;99.90;;;;;;2079142;28;20325;-74
2023/01/08 04:52:35;;;;;;;29.48;21.45;;;5.90;99.90;;;;;;2080581;28;20054;-73
2023/01/08 04:53:36;;;;;;;28.58;21.02;;;5.80;99.90;;;;;;2083566;28;20491;-74
2023/01/08 04:54:37;;;;;;;28.38;20.50;;;5.80;99.90;;;;;;2076404;28;20445;-73
2023/01/08 04:55:37;;;;;;;29.40;21.30;;;5.80;99.90;;;;;;2078076;28;20064;-73
2023/01/08 04:56:38;;;;;;;30.08;21.13;;;5.90;99.90;;;;;;2087079;28;20250;-73
2023/01/08 04:57:39;;;;;;;29.27;20.88;;;5.80;99.90;;;;;;2077809;28;20136;-73
2023/01/08 04:58:40;;;;;;;29.00;20.90;;;5.70;99.90;;;;;;2079999;28;20578;-73
2023/01/08 04:59:40;;;;;;;29.60;20.75;;;5.80;99.90;;;;;;2074865;28;20536;-74
2023/01/08 05:00:41;;;;;;;31.15;22.33;;;5.80;99.90;;;;;;2079507;28;20029;-73
2023/01/08 05:01:41;;;;;;;30.67;21.40;;;5.70;99.90;;;;;;2089574;28;20028;-74
2023/01/08 05:02:42;;;;;;;31.98;21.95;;;5.70;99.90;;;;;;2086550;28;20099;-74
2023/01/08 05:03:42;;;;;;;30.00;21.23;;;5.80;99.90;;;;;;2086675;28;20406;-74
2023/01/08 05:04:43;;;;;;;30.73;22.42;;;5.80;99.90;;;;;;2076675;28;20680;-73
2023/01/08 05:05:43;;;;;;;30.90;21.73;;;5.80;99.90;;;;;;2074272;28;20285;-73
2023/01/08 05:06:44;;;;;;;31.95;22.30;;;5.80;99.90;;;;;;2083175;28;20303;-73
2023/01/08 05:07:44;;;;;;;29.52;21.48;;;5.80;99.90;;;;;;2089767;28;20024;-74
2023/01/08 05:08:45;;;;;;;30.85;21.27;;;5.90;99.90;;;;;;2074892;28;20156;-74
2023/01/08 05:09:45;;;;;;;32.28;22.30;;;5.90;99.90;;;;;;2079002;28;20056;-74
2023/01/08 05:10:46;;;;;;;30.90;21.98;;;5.90;99.90;;;;;;2089430;28;20364;-74
2023/01/08 05:11:47;;;;;;;32.03;22.88;;;5.90;99.90;;;;;;2086517;28;20078;-73
2023/01/08 05:12:47;;;;;;;31.98;22.83;;;5.90;99.90;;;;;;2086717;28;20028;-74
2023/01/08 05:13:49;;;;;;;31.52;22.48;;;5.90;99.90;;;;;;2084982;28;20447;-73
2023/01/08 05:14:50;;;;;;;33.45;23.30;;;5.90;99.90;;;;;;2086251;28;20043;-73
2023/01/08 05:15:50;;;;;;;31.20;21.95;;;5.90;99.90;;;;;;2077831;28;20507;-73
2023/01/08 05:16:51;;;;;;;29.67;21.80;;;5.90;99.90;;;;;;2076385;28;20528;-73
2023/01/08 05:18:03;;;;;;;30.50;21.42;;;5.90;99.90;;;;;;2083333;28;20028;-74
2023/01/08 05:19:03;;;;;;;31.88;21.98;;;5.90;99.90;;;;;;2087755;28;20868;-74
2023/01/08 05:20:07;;;;;;;31.38;21.83;;;5.90;99.90;;;;;;2090608;28;20158;-74
2023/01/08 05:21:07;;;;;;;30.38;21.73;;;5.90;99.90;;;;;;2088484;28;20189;-74
2023/01/08 05:22:08;;;;;;;28.70;20.85;;;5.90;99.90;;;;;;2079792;28;20056;-74
2023/01/08 05:23:08;;;;;;;29.70;22.02;;;5.90;99.90;;;;;;2077389;28;20499;-74
2023/01/08 05:24:09;;;;;;;29.35;21.08;;;5.90;99.90;;;;;;2085733;28;20021;-74
2023/01/08 05:25:10;;;;;;;31.48;22.05;;;5.80;99.90;;;;;;2086502;28;20060;-74
2023/01/08 05:26:10;;;;;;;33.17;22.27;;;5.80;99.90;;;;;;2086487;28;20041;-74
2023/01/08 05:27:11;;;;;;;32.20;22.80;;;5.80;99.90;;;;;;2080030;28;20037;-74